AirNav  
 
airports navaids fix Aviation Fuel airboss pilotshop
 1765 users online  

7MO Princeton-Kauffman Memorial Airport
Princeton, Missouri, USA


FAA INFORMATION EFFECTIVE 03 JUNE 2010

Location

FAA Identifier: 7MO
Lat/Long: 40-25-15.8000N / 093-35-58.3000W
40-25.263333N / 093-35.971667W
40.4210556 / -93.5995278
(estimated)
Elevation: 858 ft. / 261.5 m (surveyed)
Variation: 04E (1985)
From city: 2 miles NW of PRINCETON, MO
Time zone: UTC -5 (UTC -6 during Standard Time)
Zip code: 64673

Airport Operations

Airport use: Open to the public
Activation date: 08/1973
Sectional chart: OMAHA
Control tower: no
ARTCC: KANSAS CITY CENTER
FSS: COLUMBIA FLIGHT SERVICE STATION
NOTAMs facility: COU (NOTAM-D service available)
Attendance: UNATNDD
Wind indicator: yes
Segmented circle: no

Airport Communications

CTAF: 122.9
WX ASOS at LWD (19 nm NW): 120.0 (641-784-8122)

Nearby radio navigation aids

VOR radial/distance  VOR name  Freq  Var
LMNr115/19.8LAMONI VORTAC116.7007E

 
NDB name  Hdg/Dist  Freq  Var  ID
TRENTON356/20.440003ETRX - .-. -..-
CENTERVILLE242/35.729001ETVK - ...- -.-
CHARITON192/37.333505ECNC -.-. -. -.-.
CHILLICOTHE350/38.937503ECHT -.-. .... -

Airport Services

Parking: hangars
Airframe service: NONE
Powerplant service: NONE
Bottled oxygen: NONE
Bulk oxygen: NONE

Runway Information

Runway 18/36

Dimensions: 2475 x 100 ft. / 754 x 30 m
Surface: turf, in good condition
Runway edge markings: 18/36 MARKED WITH LARGE YELLOW CONES; DSPLCD THLD RY 36 MARKED WITH 3 LARGE YELLOW CONES ON EACH SIDE OF RY.
RUNWAY 18  RUNWAY 36
Latitude: 40-25.467167N40-25.059667N
Longitude: 093-35.971500W093-35.971500W
Traffic pattern: leftleft
Displaced threshold: no200 ft.
RWY 36 DSPLCD THLD IS 3 FT HIGHER THAN RY END.
Obstructions: 18 ft. tree, 40 ft. from runway, 104 ft. right of centerline, 2:1 slope to clear23 ft. tree, 89 ft. from runway, 11 ft. left of centerline, 3:1 slope to clear
RWY 36 APCH SLOPE 13:1 TO DSPLCD THLD; +22 FT TREE; 294 FT FM DSPLCD THLD; 11FT L.

Airport Ownership and Management from official FAA records

Ownership: Publicly-owned
Owner: CITY OF PRINCETON
507 MAIN
PRINCETON, MO 64673
Phone 660-748-4375
Manager: LEROY BROWN
507 MAIN
PRINCETON, MO 64673
Phone 660-748-3189

Airport Operational Statistics

Aircraft based on the field: 1
Single engine airplanes: 1
    
Aircraft operations: 130/year *
77% local general aviation
23% transient general aviation
* for 12-month period ending 30 July 2008

Additional Remarks

45 FT UTILITY LINES 1300 FT SOUTH OF RY 36 THR.
RY SOFT IN SPRING & FALL. CALL ARPT MGR FOR RY CONDITIONS 660-748-4375.
WILDLIFE ON & INVOF AIRPORT.
RWY THLDS LINE OF SIGHT OBSTRUCTED BY CHANGES IN TERRAIN GRADE.
NTSD RY SAFETY AREAS BYD EACH RY END; RY 18 END HAS INCORRECT TERRAIN GRADES, INSUF LENGTH, DITCH, BRUSH AND TREES; RY 36 END HAS INSUF LENGTH, DITCH, FENCE, ROAD, BRUSH AND TREES.

Instrument Procedures

There are no published instrument procedures at 7MO.

Some nearby airports with instrument procedures:

KLWD - Lamoni Municipal Airport (19 nm NW)
KTRX - Trenton Municipal Airport (20 nm S)
KTVK - Centerville Municipal Airport (36 nm NE)
KCNC - Chariton Municipal Airport (38 nm N)
I75 - Osceola Municipal Airport (38 nm N)
 
Loc | Ops | Rwys | IFR | FBO | Links
Com | Nav | Svcs | Stats | Notes

ATP Flight Schools promo
 
Area around 7MO (Princeton-Kauffman Memorial Airport)
 
Road maps at: MapQuest MapPoint Yahoo! Maps Google Rand McNally
Satellite photo at: TerraServer Virtual Earth

 
Aerial photo
WARNING: Photo may not be current or correct
Aerial photo of 7MO (Princeton-Kauffman Memorial Airport)
Photo by P.J. Reinders
Taken in September 2008

Do you have a better or more recent aerial photo of Princeton-Kauffman Memorial Airport that you would like to share? If so, please send us your photo.

 
Sectional chart

 
Airport distance calculator
Flying to Princeton-Kauffman Memorial Airport? Find the distance to fly.

From to 7MO

Sunrise and sunset
Times for 21-Jul-2010
 Local
(UTC-5)
 Zulu
(UTC)
Morning civil twilight05:3110:31
Sunrise06:0311:03
Sunset20:3901:39
Evening civil twilight21:1002:10

Current date and time
Zulu (UTC)  21-Jul-2010 20:02:45
Local (UTC-5)  21-Jul-2010 15:02:45
 
METAR
KLWD 
19nm NW 
211953Z AUTO 23006KT 10SM BKN030 BKN036 28/23 A3006 RMK AO2 SLP168 T02830233
KTVK 
36nm NE 
211935Z AUTO 00000KT 10SM CLR 27/23 A3008 RMK AO2
KCDJ 
36nm S 
211856Z AUTO 00000KT 28/23 A3008 RMK AO2 SLP172 T02830233 PWINO TSNO
KCNC 
37nm N 
211935Z AUTO 08005KT 10SM -RA BKN019 OVC024 25/22 A3007 RMK AO2
TAF
NOTAMs
Click for the latest NOTAMs
NOTAMs are issued by the DoD/FAA and will open in a separate window not controlled by AirNav.

 

 
 

Would you like to see your business listed on this page?

 If your business provides an interesting product or service to pilots, flight crews, aircraft, or users of the Princeton-Kauffman Memorial Airport, you should consider listing it here.  To start the listing process, click on the button below
 
Add a business
 

Other Pages about Princeton-Kauffman Memorial Airport

Page from the Missouri Airport Directory (PDF)
 
Update a link
 
Copyright © AirNav, LLC. All rights reserved. Privacy Policy  Contact